Time;durP1;ratioP1;P1;durP2;ratioP2;P2;SDS_P1;SDS_P2;PMS_P1;PMS_P2;Temp;Humidity;BMP_temperature;BMP_pressure;BME280_temperature;BME280_humidity;BME280_pressure;Samples;Min_cycle;Max_cycle;Signal;HPM_P1;HPM_P2
2022/03/07 00:02:26;;;;;;;3.65;2.50;;;3.10;99.90;;;;;;5047910;28;20804;-62
2022/03/07 00:04:53;;;;;;;4.38;2.55;;;3.00;99.90;;;;;;5053368;28;20430;-64
2022/03/07 00:07:22;;;;;;;3.92;2.63;;;2.90;99.90;;;;;;5050004;28;20495;-62
2022/03/07 00:09:49;;;;;;;4.88;3.10;;;2.90;99.90;;;;;;5054722;28;20463;-62
2022/03/07 00:12:16;;;;;;;3.55;3.10;;;2.90;99.90;;;;;;5042856;28;20834;-62
2022/03/07 00:14:43;;;;;;;3.70;2.60;;;2.90;99.90;;;;;;5038548;28;20438;-63
2022/03/07 00:17:10;;;;;;;4.40;3.35;;;2.80;99.90;;;;;;5047769;28;20533;-62
2022/03/07 00:19:37;;;;;;;4.15;2.58;;;2.90;99.90;;;;;;5053899;28;20528;-62
2022/03/07 00:22:04;;;;;;;4.70;2.70;;;2.90;99.90;;;;;;5053996;28;20425;-62
2022/03/07 00:24:32;;;;;;;3.08;2.55;;;2.80;99.90;;;;;;5047527;28;20441;-62
2022/03/07 00:26:59;;;;;;;3.72;2.60;;;3.00;99.90;;;;;;5055171;28;20480;-62
2022/03/07 00:29:27;;;;;;;4.35;2.72;;;3.00;99.90;;;;;;5052965;28;20437;-62
2022/03/07 00:31:54;;;;;;;2.97;2.20;;;3.00;99.90;;;;;;5046981;28;20441;-62
2022/03/07 00:34:21;;;;;;;3.08;2.00;;;2.90;99.90;;;;;;5049199;28;20436;-60
2022/03/07 00:36:48;;;;;;;4.25;2.22;;;2.90;99.90;;;;;;5049332;28;20878;-61
2022/03/07 00:39:15;;;;;;;4.90;2.63;;;3.00;99.90;;;;;;5049047;28;20862;-60
2022/03/07 00:41:44;;;;;;;4.95;2.35;;;2.90;99.90;;;;;;5050655;28;20850;-60
2022/03/07 00:44:10;;;;;;;3.90;2.70;;;2.80;99.90;;;;;;5050663;28;20437;-60
2022/03/07 00:46:37;;;;;;;4.55;2.97;;;2.80;99.90;;;;;;5049862;28;20491;-61
2022/03/07 00:49:04;;;;;;;3.78;2.60;;;2.80;99.90;;;;;;5047256;28;20448;-61
2022/03/07 00:51:31;;;;;;;4.53;2.50;;;2.80;99.90;;;;;;5047617;28;20429;-61
2022/03/07 00:53:59;;;;;;;5.93;2.80;;;2.70;99.90;;;;;;5046897;28;20908;-61
2022/03/07 00:56:26;;;;;;;4.35;2.90;;;2.70;99.90;;;;;;5046347;28;20425;-61
2022/03/07 00:58:54;;;;;;;3.80;2.60;;;2.70;99.90;;;;;;5046935;28;20425;-61
2022/03/07 01:01:21;;;;;;;3.50;2.30;;;2.70;99.90;;;;;;5052012;28;20491;-61
2022/03/07 01:03:48;;;;;;;2.60;2.20;;;2.70;99.90;;;;;;5048519;28;20438;-61
2022/03/07 01:06:15;;;;;;;3.47;2.05;;;2.70;99.90;;;;;;5048511;28;20430;-61
2022/03/07 01:08:42;;;;;;;3.20;2.03;;;2.60;99.90;;;;;;5049031;28;20472;-61
2022/03/07 01:11:10;;;;;;;3.40;1.90;;;2.50;99.90;;;;;;5053351;28;20429;-61
2022/03/07 01:13:37;;;;;;;3.93;2.10;;;2.60;99.90;;;;;;5043203;28;20748;-61
2022/03/07 01:16:06;;;;;;;4.67;2.00;;;2.50;99.90;;;;;;5053997;28;20868;-61
2022/03/07 01:18:33;;;;;;;3.30;2.27;;;2.50;99.90;;;;;;5050060;28;20421;-61
2022/03/07 01:21:00;;;;;;;3.30;2.10;;;2.50;99.90;;;;;;5048174;28;20476;-61
2022/03/07 01:23:27;;;;;;;4.10;2.17;;;2.50;99.90;;;;;;5049193;28;20426;-61
2022/03/07 01:25:54;;;;;;;3.13;2.15;;;2.60;99.90;;;;;;5053375;28;20432;-61
2022/03/07 01:28:21;;;;;;;3.42;1.98;;;2.60;99.90;;;;;;5049741;28;20811;-61
2022/03/07 01:30:49;;;;;;;3.25;2.10;;;2.50;99.90;;;;;;5050160;28;20438;-61
2022/03/07 01:33:18;;;;;;;3.70;2.38;;;2.50;99.90;;;;;;5049994;28;20479;-61
2022/03/07 01:35:45;;;;;;;3.08;2.08;;;2.40;99.90;;;;;;5053245;28;20490;-61
2022/03/07 01:38:12;;;;;;;2.22;1.55;;;2.60;99.90;;;;;;5052957;28;20418;-61
2022/03/07 01:40:38;;;;;;;3.58;1.90;;;2.70;99.90;;;;;;5048418;28;20437;-61
2022/03/07 01:43:07;;;;;;;2.65;2.00;;;2.60;99.90;;;;;;5050183;28;20483;-61
2022/03/07 01:45:33;;;;;;;3.03;2.13;;;2.70;99.90;;;;;;5047823;28;20469;-61
2022/03/07 01:48:01;;;;;;;2.55;1.67;;;2.50;99.90;;;;;;5050427;28;20500;-61
2022/03/07 01:50:29;;;;;;;3.40;1.80;;;2.50;99.90;;;;;;5053423;28;20542;-61
2022/03/07 01:52:56;;;;;;;3.20;2.00;;;2.30;99.90;;;;;;5049866;28;20492;-61
2022/03/07 01:55:23;;;;;;;2.60;1.70;;;2.30;99.90;;;;;;5051732;28;20726;-61
2022/03/07 01:57:51;;;;;;;3.38;1.70;;;2.20;99.90;;;;;;5050306;28;20492;-61
2022/03/07 02:00:20;;;;;;;2.88;1.73;;;2.20;99.90;;;;;;5049690;28;20799;-61
2022/03/07 02:02:48;;;;;;;2.30;2.10;;;2.10;99.90;;;;;;5053481;28;20841;-61
2022/03/07 02:05:15;;;;;;;3.53;1.80;;;2.00;99.90;;;;;;5055299;28;20433;-61
2022/03/07 02:07:44;;;;;;;3.20;2.10;;;2.00;99.90;;;;;;5055719;28;20471;-61
2022/03/07 02:10:12;;;;;;;2.58;1.67;;;2.10;99.90;;;;;;5057335;28;20473;-62
2022/03/07 02:12:40;;;;;;;3.20;1.77;;;2.10;99.90;;;;;;5057517;28;20429;-61
2022/03/07 02:15:08;;;;;;;2.43;1.70;;;2.00;99.90;;;;;;5052510;28;20432;-61
2022/03/07 02:17:35;;;;;;;4.00;1.95;;;1.90;99.90;;;;;;5056452;28;20490;-61
2022/03/07 02:20:03;;;;;;;3.88;1.70;;;1.90;99.90;;;;;;5055536;28;20507;-61
2022/03/07 02:22:32;;;;;;;2.78;1.90;;;2.00;99.90;;;;;;5056776;28;20433;-62
2022/03/07 02:24:59;;;;;;;2.85;1.70;;;2.00;99.90;;;;;;5054007;28;20433;-61
2022/03/07 02:27:26;;;;;;;3.78;1.80;;;2.10;99.90;;;;;;5056724;28;20522;-61
2022/03/07 02:29:53;;;;;;;2.75;1.98;;;2.10;99.90;;;;;;5054538;28;20506;-61
2022/03/07 02:32:20;;;;;;;2.55;1.70;;;2.00;99.90;;;;;;5056715;28;20562;-61
2022/03/07 02:34:48;;;;;;;3.40;1.80;;;1.90;99.90;;;;;;5052998;28;20439;-61
2022/03/07 02:37:15;;;;;;;1.95;1.40;;;1.80;99.90;;;;;;5055197;28;20486;-61
2022/03/07 02:39:43;;;;;;;2.92;1.90;;;1.80;99.90;;;;;;5051550;28;20433;-60
2022/03/07 02:42:12;;;;;;;3.97;1.70;;;1.90;99.90;;;;;;5046423;28;20431;-60
2022/03/07 02:44:39;;;;;;;3.30;1.90;;;1.80;99.90;;;;;;5055136;28;20429;-61
2022/03/07 02:47:07;;;;;;;2.30;1.60;;;1.80;99.90;;;;;;5055614;28;20429;-61
2022/03/07 02:49:34;;;;;;;4.30;1.80;;;1.70;99.90;;;;;;5056284;28;20522;-61
2022/03/07 02:52:01;;;;;;;2.73;2.07;;;1.70;99.90;;;;;;5056925;28;20425;-61
2022/03/07 02:54:28;;;;;;;3.30;2.20;;;1.60;99.90;;;;;;5051669;28;20844;-60
2022/03/07 02:56:56;;;;;;;3.53;2.07;;;1.80;99.90;;;;;;5050920;28;20520;-60
2022/03/07 02:59:23;;;;;;;3.75;2.10;;;1.60;99.90;;;;;;5048707;28;20498;-60
2022/03/07 03:01:50;;;;;;;3.60;2.85;;;1.40;99.90;;;;;;5054393;28;20475;-60
2022/03/07 03:04:17;;;;;;;4.38;2.00;;;1.40;99.90;;;;;;5054456;28;20433;-60
2022/03/07 03:06:44;;;;;;;4.18;2.17;;;1.40;99.90;;;;;;5051176;28;20444;-61
2022/03/07 03:09:11;;;;;;;3.20;1.70;;;1.40;99.90;;;;;;5050263;28;20508;-60
2022/03/07 03:11:38;;;;;;;3.20;2.10;;;1.40;99.90;;;;;;5053878;28;20425;-60
2022/03/07 03:14:06;;;;;;;3.80;2.50;;;1.30;99.90;;;;;;5054124;28;20491;-60
2022/03/07 03:16:34;;;;;;;2.63;2.20;;;1.30;99.90;;;;;;5054387;28;21002;-61
2022/03/07 03:19:01;;;;;;;2.50;2.07;;;1.40;99.90;;;;;;5053284;28;20428;-60
2022/03/07 03:21:28;;;;;;;3.55;1.80;;;1.50;99.90;;;;;;5051872;28;22208;-61
2022/03/07 03:23:54;;;;;;;3.00;2.20;;;1.50;99.90;;;;;;5052663;28;20475;-61
2022/03/07 03:26:21;;;;;;;3.33;1.70;;;1.40;99.90;;;;;;5054781;28;20422;-61
2022/03/07 03:28:48;;;;;;;4.10;2.20;;;1.40;99.90;;;;;;5048175;28;20487;-60
2022/03/07 03:31:17;;;;;;;3.88;2.30;;;1.50;99.90;;;;;;5047154;28;20479;-61
2022/03/07 03:33:44;;;;;;;3.05;2.25;;;1.60;99.90;;;;;;5051555;28;20499;-60
2022/03/07 03:36:10;;;;;;;3.97;2.10;;;1.60;99.90;;;;;;5042136;28;20840;-61
2022/03/07 03:38:37;;;;;;;2.83;2.13;;;1.60;99.90;;;;;;5055213;28;20517;-61
2022/03/07 03:41:04;;;;;;;3.40;2.20;;;1.60;99.90;;;;;;5055415;28;20437;-61
2022/03/07 03:43:31;;;;;;;3.20;2.10;;;1.50;99.90;;;;;;5050679;28;20467;-61
2022/03/07 03:45:58;;;;;;;2.50;2.00;;;1.40;99.90;;;;;;5050546;28;20443;-61
2022/03/07 03:48:27;;;;;;;2.50;1.70;;;1.50;99.90;;;;;;5053955;28;20429;-61
2022/03/07 03:50:54;;;;;;;3.72;2.00;;;1.50;99.90;;;;;;5053716;28;20436;-61
2022/03/07 03:53:20;;;;;;;2.70;1.90;;;1.60;99.90;;;;;;5055027;28;20426;-61
2022/03/07 03:55:50;;;;;;;2.60;1.92;;;1.30;99.90;;;;;;5055387;28;20429;-60
2022/03/07 03:58:17;;;;;;;2.75;1.95;;;1.20;99.90;;;;;;5054411;28;20924;-61
2022/03/07 04:00:44;;;;;;;3.40;2.00;;;1.30;99.90;;;;;;5055055;28;20489;-60
2022/03/07 04:03:11;;;;;;;5.25;2.10;;;1.40;99.90;;;;;;5053476;28;20437;-60
2022/03/07 04:05:39;;;;;;;2.60;2.38;;;1.50;99.90;;;;;;5054262;28;20440;-62
2022/03/07 04:08:07;;;;;;;4.30;2.63;;;1.60;99.90;;;;;;5052345;28;20498;-61
2022/03/07 04:10:34;;;;;;;3.80;2.63;;;1.50;99.90;;;;;;5054080;28;20441;-61
2022/03/07 04:13:00;;;;;;;3.53;2.10;;;1.40;99.90;;;;;;5049193;28;20802;-61
2022/03/07 04:15:27;;;;;;;3.00;1.98;;;1.40;99.90;;;;;;5048070;28;20491;-61
2022/03/07 04:17:55;;;;;;;3.53;2.35;;;1.50;99.90;;;;;;5052533;28;20425;-61
2022/03/07 04:20:23;;;;;;;5.45;2.30;;;1.50;99.90;;;;;;5054660;28;20429;-61
2022/03/07 04:22:52;;;;;;;3.97;2.17;;;1.50;99.90;;;;;;5054998;28;20478;-61
2022/03/07 04:25:19;;;;;;;4.93;2.70;;;1.40;99.90;;;;;;5048879;28;20437;-61
2022/03/07 04:27:46;;;;;;;4.10;2.80;;;1.20;99.90;;;;;;5054189;28;20483;-61
2022/03/07 04:30:13;;;;;;;4.15;2.70;;;1.20;99.90;;;;;;5052716;28;20535;-61
2022/03/07 04:32:40;;;;;;;3.53;2.50;;;1.20;99.90;;;;;;5046717;28;20433;-61
2022/03/07 04:35:10;;;;;;;4.95;2.78;;;1.20;99.90;;;;;;5050233;28;20437;-61
2022/03/07 04:37:39;;;;;;;4.68;2.88;;;1.20;99.90;;;;;;5051311;28;20433;-61
2022/03/07 04:40:10;;;;;;;3.30;2.50;;;1.20;99.90;;;;;;5053907;28;20780;-60
2022/03/07 04:42:37;;;;;;;5.05;3.00;;;1.30;99.90;;;;;;5045235;28;20471;-60
2022/03/07 04:45:04;;;;;;;4.03;2.88;;;1.20;99.90;;;;;;5051755;28;20437;-61
2022/03/07 04:47:31;;;;;;;4.60;3.00;;;1.10;99.90;;;;;;5054224;28;20777;-61
2022/03/07 04:49:58;;;;;;;4.20;3.20;;;1.00;99.90;;;;;;5053285;28;20441;-61
2022/03/07 04:52:25;;;;;;;5.10;3.00;;;1.10;99.90;;;;;;5052900;28;20847;-60
2022/03/07 04:54:52;;;;;;;4.90;3.40;;;1.10;99.90;;;;;;5049381;28;20918;-61
2022/03/07 04:57:21;;;;;;;4.95;2.90;;;1.20;99.90;;;;;;5052304;28;20429;-61
2022/03/07 04:59:48;;;;;;;4.35;2.45;;;1.10;99.90;;;;;;5052920;28;20844;-61
2022/03/07 05:02:15;;;;;;;4.63;3.63;;;1.10;99.90;;;;;;5050369;28;20539;-62
2022/03/07 05:04:42;;;;;;;4.68;3.38;;;1.00;99.90;;;;;;5051248;28;20433;-62
2022/03/07 05:07:09;;;;;;;6.50;3.70;;;1.00;99.90;;;;;;5048503;28;20434;-62
2022/03/07 05:09:36;;;;;;;4.70;3.35;;;0.90;99.90;;;;;;5050767;28;20912;-62
2022/03/07 05:12:03;;;;;;;5.43;3.50;;;0.90;99.90;;;;;;5052540;28;20495;-62
2022/03/07 05:14:32;;;;;;;9.55;4.20;;;1.00;99.90;;;;;;5051596;28;20433;-62
2022/03/07 05:16:59;;;;;;;5.00;2.95;;;1.10;99.90;;;;;;5049286;28;20487;-61
2022/03/07 05:19:26;;;;;;;5.57;3.35;;;1.10;99.90;;;;;;5049291;28;20496;-62
2022/03/07 05:21:53;;;;;;;5.78;4.00;;;1.00;99.90;;;;;;5050699;28;20433;-63
2022/03/07 05:24:20;;;;;;;6.25;4.00;;;1.00;99.90;;;;;;5047787;28;20464;-62
2022/03/07 05:26:47;;;;;;;5.82;3.30;;;1.00;99.90;;;;;;5052713;28;20425;-62
2022/03/07 05:29:14;;;;;;;5.82;3.83;;;1.00;99.90;;;;;;5046961;28;20495;-62
2022/03/07 05:31:42;;;;;;;6.07;3.20;;;1.10;99.90;;;;;;5049195;28;20558;-62
2022/03/07 05:34:09;;;;;;;5.00;3.50;;;0.90;99.90;;;;;;5052971;28;20473;-62
2022/03/07 05:36:36;;;;;;;5.95;3.50;;;0.80;1.00;;;;;;5052791;28;20836;-62
2022/03/07 05:39:04;;;;;;;5.95;3.47;;;0.70;1.00;;;;;;5049459;28;20903;-62
2022/03/07 05:41:31;;;;;;;7.00;4.13;;;0.60;1.00;;;;;;5049029;28;20507;-62
2022/03/07 05:43:58;;;;;;;5.32;3.15;;;0.60;1.00;;;;;;5055371;28;22041;-62
2022/03/07 05:46:25;;;;;;;4.35;3.42;;;0.70;1.00;;;;;;5054786;28;20486;-62
2022/03/07 05:48:54;;;;;;;5.38;3.20;;;0.90;1.00;;;;;;5050859;28;20429;-62
2022/03/07 05:51:23;;;;;;;4.80;3.28;;;1.00;1.00;;;;;;5053857;28;20494;-62
2022/03/07 05:53:50;;;;;;;4.50;3.10;;;1.10;1.00;;;;;;5054718;28;20428;-63
2022/03/07 05:56:18;;;;;;;5.38;2.92;;;1.10;1.00;;;;;;5049967;28;20427;-62
2022/03/07 05:58:46;;;;;;;5.63;3.10;;;1.10;1.00;;;;;;5055470;28;20498;-61
2022/03/07 06:01:13;;;;;;;4.60;2.38;;;1.10;1.00;;;;;;5050651;28;20421;-62
2022/03/07 06:03:40;;;;;;;6.00;3.00;;;1.10;1.00;;;;;;5054608;28;20502;-62
2022/03/07 06:06:09;;;;;;;5.88;3.72;;;1.00;1.00;;;;;;5055094;28;20942;-62
2022/03/07 06:08:36;;;;;;;4.65;2.88;;;0.90;1.00;;;;;;5041880;28;20452;-62
2022/03/07 06:11:03;;;;;;;5.10;3.17;;;0.90;1.00;;;;;;5042157;28;20506;-61
2022/03/07 06:13:30;;;;;;;4.20;2.47;;;0.80;1.00;;;;;;5045180;28;20717;-61
2022/03/07 06:15:57;;;;;;;5.10;2.50;;;0.70;1.00;;;;;;5047055;28;20433;-62
2022/03/07 06:18:25;;;;;;;5.32;2.42;;;0.80;1.00;;;;;;5054795;28;20818;-62
2022/03/07 06:20:52;;;;;;;3.83;2.65;;;0.80;1.00;;;;;;5050514;28;20429;-62
2022/03/07 06:23:20;;;;;;;4.55;2.42;;;1.00;1.00;;;;;;5052709;28;20479;-62
2022/03/07 06:25:47;;;;;;;5.93;2.73;;;1.10;1.00;;;;;;5053241;28;20558;-61
2022/03/07 06:28:15;;;;;;;4.60;3.20;;;1.00;1.00;;;;;;5046151;28;20425;-61
2022/03/07 06:30:42;;;;;;;4.50;2.10;;;1.00;1.00;;;;;;5047563;28;20433;-61
2022/03/07 06:33:09;;;;;;;4.90;2.70;;;0.90;1.00;;;;;;5045005;28;20482;-62
2022/03/07 06:35:36;;;;;;;4.80;2.40;;;0.80;1.00;;;;;;5036105;28;20494;-63
2022/03/07 06:38:03;;;;;;;3.60;2.25;;;0.80;1.00;;;;;;5051138;28;20426;-61
2022/03/07 06:40:32;;;;;;;3.53;2.60;;;1.00;1.00;;;;;;5053138;28;20895;-61
2022/03/07 06:43:00;;;;;;;4.43;2.30;;;0.90;1.00;;;;;;5045085;28;20425;-61
2022/03/07 06:45:29;;;;;;;4.35;2.30;;;0.90;1.00;;;;;;5046748;28;20520;-61
2022/03/07 06:47:57;;;;;;;2.58;1.90;;;1.00;1.00;;;;;;5052470;28;20478;-61
2022/03/07 06:50:24;;;;;;;4.93;2.40;;;1.00;1.00;;;;;;5039282;28;20508;-61
2022/03/07 06:52:51;;;;;;;4.10;2.30;;;1.10;1.00;;;;;;5051541;28;20467;-62
2022/03/07 06:55:19;;;;;;;3.97;2.50;;;1.20;1.00;;;;;;5041759;28;21034;-62
2022/03/07 06:57:47;;;;;;;5.22;2.20;;;1.30;1.00;;;;;;5051935;28;20440;-62
2022/03/07 07:00:16;;;;;;;2.42;1.70;;;1.20;1.00;;;;;;5046451;28;20862;-61
2022/03/07 07:02:44;;;;;;;6.38;4.00;;;1.10;1.00;;;;;;5049107;28;20546;-61
2022/03/07 07:05:11;;;;;;;4.78;3.20;;;1.40;1.00;;;;;;5054403;28;20506;-60
2022/03/07 07:07:38;;;;;;;3.17;2.20;;;1.30;1.00;;;;;;5051623;28;20425;-61
2022/03/07 07:10:07;;;;;;;3.40;2.25;;;1.50;1.00;;;;;;5049684;28;20917;-61
2022/03/07 07:12:34;;;;;;;4.47;1.80;;;1.40;1.00;;;;;;5053116;28;20421;-61
2022/03/07 07:15:03;;;;;;;3.30;1.90;;;1.30;1.00;;;;;;5049334;28;20542;-61
2022/03/07 07:17:31;;;;;;;3.20;1.90;;;1.50;1.00;;;;;;5046111;28;20587;-61
2022/03/07 07:19:58;;;;;;;3.80;2.30;;;1.30;1.00;;;;;;5052816;28;20429;-62
2022/03/07 07:22:26;;;;;;;4.80;2.00;;;1.10;1.00;;;;;;5050845;28;20429;-62
2022/03/07 07:24:53;;;;;;;4.80;2.30;;;1.00;1.00;;;;;;5048774;28;20516;-62
2022/03/07 07:27:20;;;;;;;5.30;2.50;;;0.90;1.00;;;;;;5048337;28;20532;-62
2022/03/07 07:29:47;;;;;;;5.10;2.28;;;0.80;1.00;;;;;;5046210;28;20442;-61
2022/03/07 07:32:15;;;;;;;4.30;2.80;;;1.00;1.00;;;;;;5049081;28;20425;-61
2022/03/07 07:34:42;;;;;;;3.90;2.40;;;1.20;1.00;;;;;;5040209;28;20855;-61
2022/03/07 07:37:10;;;;;;;4.40;2.33;;;1.20;1.00;;;;;;5046377;28;20757;-61
2022/03/07 07:39:37;;;;;;;4.22;1.95;;;1.30;1.00;;;;;;5047766;28;20798;-60
2022/03/07 07:42:05;;;;;;;5.43;2.17;;;1.50;1.00;;;;;;5050512;28;20475;-60
2022/03/07 07:44:32;;;;;;;4.63;2.50;;;1.70;1.00;;;;;;5049106;28;20433;-61
2022/03/07 07:46:59;;;;;;;3.75;1.73;;;1.70;1.00;;;;;;5047568;28;20464;-61
2022/03/07 07:49:27;;;;;;;3.65;1.77;;;1.70;1.00;;;;;;5044456;28;20442;-61
2022/03/07 07:51:54;;;;;;;2.90;1.90;;;1.50;1.00;;;;;;5045398;28;20465;-58
2022/03/07 07:54:21;;;;;;;4.05;1.83;;;1.60;1.00;;;;;;5044677;28;20453;-58
2022/03/07 07:56:48;;;;;;;4.68;2.70;;;1.60;1.00;;;;;;5034740;28;20427;-58
2022/03/07 07:59:15;;;;;;;3.70;2.50;;;1.60;1.00;;;;;;5046399;28;20725;-58
2022/03/07 08:01:42;;;;;;;4.55;2.58;;;1.60;1.00;;;;;;5042252;28;20417;-58
2022/03/07 08:04:09;;;;;;;4.00;2.30;;;1.60;1.00;;;;;;5049341;28;20957;-58
2022/03/07 08:06:40;;;;;;;5.35;2.67;;;1.50;1.00;;;;;;5045467;28;20869;-60
2022/03/07 08:09:36;;;;;;;4.90;2.30;;;1.50;1.00;;;;;;5047174;28;20445;-57
2022/03/07 08:12:04;;;;;;;4.68;2.75;;;1.50;1.00;;;;;;5046372;28;20524;-57
2022/03/07 08:14:31;;;;;;;7.50;2.60;;;1.60;1.00;;;;;;5042237;28;20426;-57
2022/03/07 08:16:59;;;;;;;5.60;2.40;;;1.60;1.00;;;;;;5047719;28;20934;-58
2022/03/07 08:19:26;;;;;;;3.53;2.85;;;1.70;1.00;;;;;;5035978;28;20452;-56
2022/03/07 08:21:54;;;;;;;4.72;2.65;;;1.80;1.00;;;;;;5042624;28;20433;-57
2022/03/07 08:24:23;;;;;;;5.40;3.00;;;1.80;1.00;;;;;;5044233;28;21008;-58
2022/03/07 08:26:50;;;;;;;4.25;2.80;;;1.80;1.00;;;;;;5045611;28;20847;-58
2022/03/07 08:29:17;;;;;;;4.03;2.50;;;1.90;1.00;;;;;;5047283;28;20448;-57
2022/03/07 08:31:44;;;;;;;4.55;2.58;;;2.10;1.00;;;;;;5049382;28;20429;-58
2022/03/07 08:34:11;;;;;;;6.15;2.30;;;2.10;1.00;;;;;;5048440;28;20510;-58
2022/03/07 08:36:38;;;;;;;11.30;6.30;;;2.20;1.00;;;;;;5047372;28;20464;-58
2022/03/07 08:39:06;;;;;;;9.88;6.13;;;2.40;1.00;;;;;;5049444;28;20425;-56
2022/03/07 08:41:34;;;;;;;14.55;8.27;;;2.50;1.00;;;;;;5048476;28;20490;-56
2022/03/07 08:44:01;;;;;;;4.80;3.03;;;2.40;1.00;;;;;;5043526;28;20429;-57
2022/03/07 08:46:28;;;;;;;3.90;2.20;;;2.30;1.00;;;;;;5043917;28;20429;-58
2022/03/07 08:48:55;;;;;;;5.38;2.50;;;2.50;1.00;;;;;;5045426;28;20440;-59
2022/03/07 08:51:22;;;;;;;5.32;2.50;;;2.90;1.00;;;;;;5043507;28;20437;-59
2022/03/07 08:53:49;;;;;;;3.97;2.60;;;3.00;1.00;;;;;;5046304;28;20429;-58
2022/03/07 08:56:18;;;;;;;6.93;2.65;;;3.10;1.00;;;;;;5046266;28;20437;-59
2022/03/07 08:58:46;;;;;;;3.92;2.70;;;3.10;1.00;;;;;;5049224;28;20429;-58
2022/03/07 09:01:13;;;;;;;4.07;2.28;;;3.20;99.90;;;;;;5050618;28;20436;-58
2022/03/07 09:03:40;;;;;;;3.72;2.10;;;3.40;99.90;;;;;;5051539;28;20479;-58
2022/03/07 09:06:07;;;;;;;4.15;2.40;;;3.20;99.90;;;;;;5050382;28;20433;-58
2022/03/07 09:08:34;;;;;;;4.40;2.63;;;3.10;99.90;;;;;;5043388;28;20425;-59
2022/03/07 09:11:01;;;;;;;3.90;2.70;;;3.00;99.90;;;;;;5050800;28;20503;-58
2022/03/07 09:13:30;;;;;;;3.60;2.40;;;3.00;99.90;;;;;;5047352;28;20425;-57
2022/03/07 09:15:56;;;;;;;5.13;2.33;;;3.20;99.90;;;;;;5051607;28;20440;-59
2022/03/07 09:18:25;;;;;;;4.88;2.92;;;3.40;99.90;;;;;;5050102;28;20421;-56
2022/03/07 09:20:54;;;;;;;3.97;2.35;;;3.50;99.90;;;;;;5049676;28;20428;-57
2022/03/07 09:23:21;;;;;;;4.65;2.65;;;3.60;99.90;;;;;;5053261;28;20433;-56
2022/03/07 09:25:48;;;;;;;6.35;2.90;;;3.60;99.90;;;;;;5057289;28;23016;-56
2022/03/07 09:28:16;;;;;;;4.50;2.53;;;3.40;99.90;;;;;;5056975;28;20788;-63
2022/03/07 09:30:45;;;;;;;3.53;2.70;;;3.40;99.90;;;;;;5053673;28;20491;-63
2022/03/07 09:33:12;;;;;;;5.82;3.45;;;3.50;99.90;;;;;;5054399;28;20429;-63
2022/03/07 09:35:39;;;;;;;4.80;2.30;;;3.70;99.90;;;;;;5050099;28;20444;-63
2022/03/07 09:38:06;;;;;;;5.25;2.90;;;4.00;99.90;;;;;;5056788;28;20475;-63
2022/03/07 09:40:33;;;;;;;4.50;2.80;;;4.00;99.90;;;;;;5053893;28;20432;-63
2022/03/07 09:43:05;;;;;;;7.63;4.60;;;4.20;99.90;;;;;;5056326;28;21157;-64
2022/03/07 09:48:17;;;;;;;4.75;2.70;;;4.10;99.90;;;;;;5050487;28;20432;-60
2022/03/07 09:50:45;;;;;;;3.60;2.53;;;4.40;99.90;;;;;;5047687;28;20550;-62
2022/03/07 09:53:16;;;;;;;3.90;2.60;;;4.60;99.90;;;;;;5056843;28;20865;-64
2022/03/07 09:55:51;;;;;;;4.20;2.63;;;4.70;99.90;;;;;;5054020;28;20444;-63
2022/03/07 09:58:21;;;;;;;4.15;2.60;;;4.80;99.90;;;;;;5055395;28;20433;-64
2022/03/07 10:00:58;;;;;;;4.90;2.85;;;4.70;99.90;;;;;;5054822;28;20431;-62
2022/03/07 10:03:33;;;;;;;5.68;2.97;;;4.40;99.90;;;;;;5047801;28;20429;-63
2022/03/07 10:06:00;;;;;;;5.00;2.40;;;4.50;99.90;;;;;;5053803;28;20980;-59
2022/03/07 10:08:30;;;;;;;5.22;3.10;;;4.80;99.90;;;;;;5043000;28;20440;-61
2022/03/07 10:10:58;;;;;;;4.10;2.90;;;5.30;99.90;;;;;;5052771;28;20444;-59
2022/03/07 10:13:25;;;;;;;3.03;2.20;;;5.80;99.90;;;;;;5044154;28;20448;-60
2022/03/07 10:15:58;;;;;;;7.50;4.18;;;5.90;99.90;;;;;;5049590;28;20943;-60
2022/03/07 10:18:27;;;;;;;6.15;4.10;;;6.00;99.90;;;;;;5053939;28;20450;-60
2022/03/07 10:20:56;;;;;;;11.48;6.72;;;5.70;99.90;;;;;;5051056;28;20437;-59
2022/03/07 10:23:25;;;;;;;5.65;3.50;;;5.90;99.90;;;;;;5049416;28;20437;-60
2022/03/07 10:25:53;;;;;;;4.35;3.28;;;6.00;99.90;;;;;;5053070;28;20889;-61
2022/03/07 10:28:21;;;;;;;4.60;2.93;;;6.50;99.90;;;;;;5046453;28;20874;-63
2022/03/07 10:30:49;;;;;;;4.75;3.30;;;6.30;99.90;;;;;;5052247;28;20532;-63
2022/03/07 10:33:16;;;;;;;4.30;2.50;;;6.60;99.90;;;;;;5047770;28;20436;-63
2022/03/07 10:35:48;;;;;;;3.97;2.53;;;6.50;99.90;;;;;;5052722;28;20487;-62
2022/03/07 10:38:17;;;;;;;5.15;3.63;;;6.10;99.90;;;;;;5030863;28;20957;-63
2022/03/07 10:40:47;;;;;;;4.07;2.67;;;5.90;99.90;;;;;;5038204;28;20425;-62
2022/03/07 10:43:15;;;;;;;3.97;2.80;;;5.80;99.90;;;;;;5042255;28;20436;-63
2022/03/07 10:45:47;;;;;;;4.70;3.10;;;6.10;99.90;;;;;;5038236;28;20823;-62
2022/03/07 10:48:14;;;;;;;3.43;2.60;;;6.30;99.90;;;;;;5033573;28;20894;-62
2022/03/07 10:50:46;;;;;;;5.53;3.17;;;6.30;99.90;;;;;;5025699;28;20505;-64
2022/03/07 10:53:15;;;;;;;4.57;3.15;;;6.20;99.90;;;;;;5026260;28;20743;-63
2022/03/07 10:55:50;;;;;;;5.72;3.88;;;5.50;99.90;;;;;;5030984;28;20427;-64
2022/03/07 10:58:17;;;;;;;4.93;3.67;;;5.40;99.90;;;;;;5025501;28;20439;-62
2022/03/07 11:00:49;;;;;;;4.03;2.70;;;5.10;99.90;;;;;;5031960;28;20573;-62
2022/03/07 11:03:17;;;;;;;15.15;9.65;;;5.10;99.90;;;;;;5032443;28;20442;-62
2022/03/07 11:05:45;;;;;;;5.90;3.50;;;5.60;99.90;;;;;;5031385;28;20485;-62
2022/03/07 11:08:15;;;;;;;4.30;3.10;;;6.20;99.90;;;;;;5021301;28;20522;-62
2022/03/07 11:10:46;;;;;;;5.03;2.83;;;6.30;99.90;;;;;;5027347;28;20507;-61
2022/03/07 11:13:14;;;;;;;4.37;3.47;;;6.30;99.90;;;;;;5023098;28;20438;-62
2022/03/07 11:15:43;;;;;;;4.10;3.40;;;6.40;99.90;;;;;;5025111;28;20948;-62
2022/03/07 11:18:12;;;;;;;5.78;3.38;;;6.00;99.90;;;;;;5021371;28;20439;-60
2022/03/07 11:20:42;;;;;;;6.10;3.50;;;5.90;99.90;;;;;;5022554;28;20453;-62
2022/03/07 11:23:11;;;;;;;4.63;3.47;;;6.20;99.90;;;;;;5026414;28;20441;-62
2022/03/07 11:25:39;;;;;;;5.60;3.30;;;5.90;99.90;;;;;;5024260;28;20518;-62
2022/03/07 11:28:08;;;;;;;4.75;3.25;;;6.10;99.90;;;;;;5020901;28;20510;-62
2022/03/07 11:30:37;;;;;;;5.03;3.60;;;5.90;99.90;;;;;;5025843;28;21118;-62
2022/03/07 11:33:11;;;;;;;3.60;2.90;;;5.90;99.90;;;;;;5026303;28;20562;-61
2022/03/07 11:35:41;;;;;;;5.35;3.53;;;5.90;99.90;;;;;;5024457;28;20426;-62
2022/03/07 11:38:13;;;;;;;5.40;3.70;;;5.80;99.90;;;;;;5026364;28;20914;-62
2022/03/07 11:40:59;;;;;;;4.60;2.90;;;5.90;99.90;;;;;;5024671;28;20421;-62
2022/03/07 11:43:29;;;;;;;6.65;3.92;;;5.90;99.90;;;;;;5032046;28;20441;-63
2022/03/07 11:45:57;;;;;;;6.75;4.45;;;5.70;99.90;;;;;;5030353;28;20977;-62
2022/03/07 11:48:25;;;;;;;4.70;2.97;;;5.60;99.90;;;;;;5037395;28;20433;-62
2022/03/07 11:50:52;;;;;;;3.50;2.60;;;5.50;99.90;;;;;;5049117;28;20538;-62
2022/03/07 11:53:19;;;;;;;4.93;3.10;;;5.50;99.90;;;;;;5051765;28;21077;-59
2022/03/07 11:55:48;;;;;;;4.25;3.00;;;5.50;99.90;;;;;;5051408;28;20425;-60
2022/03/07 11:58:36;;;;;;;5.03;3.35;;;5.40;99.90;;;;;;5049563;28;20494;-59
2022/03/07 12:01:06;;;;;;;5.20;3.60;;;5.30;99.90;;;;;;5049435;28;20417;-60
2022/03/07 12:03:35;;;;;;;5.55;3.30;;;5.30;99.90;;;;;;5047410;28;20440;-60
2022/03/07 12:06:06;;;;;;;5.57;3.47;;;5.30;99.90;;;;;;5051961;28;20425;-60
2022/03/07 12:08:47;;;;;;;5.43;3.10;;;5.00;99.90;;;;;;5051716;28;20524;-60
2022/03/07 12:11:26;;;;;;;3.70;2.90;;;5.20;99.90;;;;;;5049748;28;20429;-61
2022/03/07 12:14:02;;;;;;;3.70;2.78;;;6.10;99.90;;;;;;5040506;28;20514;-60
2022/03/07 12:16:31;;;;;;;3.97;3.13;;;6.70;99.90;;;;;;5050576;28;20412;-60
2022/03/07 12:19:07;;;;;;;5.63;3.40;;;7.10;99.90;;;;;;5051023;28;20445;-61
2022/03/07 12:21:34;;;;;;;4.53;3.00;;;7.40;99.90;;;;;;5049435;28;20512;-61
2022/03/07 12:24:02;;;;;;;4.45;3.50;;;7.60;99.90;;;;;;5048384;28;20450;-61
2022/03/07 12:26:28;;;;;;;3.58;2.95;;;7.00;99.90;;;;;;5045164;28;20904;-61
2022/03/07 12:28:57;;;;;;;3.63;2.50;;;6.80;99.90;;;;;;5042445;28;20437;-61
2022/03/07 12:31:25;;;;;;;4.68;2.53;;;6.80;99.90;;;;;;5038174;28;20444;-61
2022/03/07 12:33:52;;;;;;;4.30;2.55;;;7.00;99.90;;;;;;5048709;28;20519;-60
2022/03/07 12:36:19;;;;;;;6.13;3.90;;;7.50;99.90;;;;;;5051065;28;21102;-60
2022/03/07 12:38:47;;;;;;;2.90;2.33;;;7.40;99.90;;;;;;5047744;28;21021;-62
2022/03/07 12:41:16;;;;;;;3.65;2.10;;;7.60;99.90;;;;;;5043527;28;20809;-61
2022/03/07 12:43:44;;;;;;;3.23;2.93;;;8.00;99.90;;;;;;5046484;28;20433;-61
2022/03/07 12:46:14;;;;;;;4.78;3.70;;;8.30;99.90;;;;;;5042738;28;20430;-61
2022/03/07 12:48:43;;;;;;;3.90;3.33;;;8.50;99.90;;;;;;5046902;28;20443;-60
2022/03/07 12:51:13;;;;;;;5.60;3.50;;;8.50;99.90;;;;;;5043970;28;20429;-61
2022/03/07 12:53:48;;;;;;;5.67;3.63;;;8.40;99.90;;;;;;5042456;28;20421;-61
2022/03/07 12:56:16;;;;;;;5.03;3.30;;;7.90;99.90;;;;;;5050841;28;20417;-61
2022/03/07 12:58:51;;;;;;;6.03;3.20;;;7.60;99.90;;;;;;5043898;28;20445;-61
2022/03/07 13:01:20;;;;;;;4.35;3.10;;;7.70;99.90;;;;;;5042901;28;20444;-61
2022/03/07 13:03:48;;;;;;;4.00;3.60;;;7.60;99.90;;;;;;5048712;28;20429;-62
2022/03/07 13:06:17;;;;;;;3.45;2.53;;;7.40;99.90;;;;;;5043554;28;20513;-61
2022/03/07 13:08:49;;;;;;;3.92;2.67;;;7.40;99.90;;;;;;5045633;28;20433;-60